createdAt,value
2023-02-11T00:01:35.597Z,100.00
2023-02-11T00:04:05.790Z,100.00
2023-02-11T00:06:35.617Z,100.00
2023-02-11T00:09:04.799Z,100.00
2023-02-11T00:11:32.557Z,100.00
2023-02-11T00:14:03.451Z,100.00
2023-02-11T00:16:32.343Z,100.00
2023-02-11T00:19:01.998Z,100.00
2023-02-11T00:21:29.952Z,100.00
2023-02-11T00:23:59.862Z,100.00
2023-02-11T00:26:35.242Z,100.00
2023-02-11T00:29:04.643Z,100.00
2023-02-11T00:31:33.176Z,100.00
2023-02-11T00:34:00.918Z,100.00
2023-02-11T00:36:30.129Z,100.00
2023-02-11T00:38:59.881Z,100.00
2023-02-11T00:41:29.552Z,100.00
2023-02-11T00:44:01.742Z,100.00
2023-02-11T00:46:30.520Z,100.00
2023-02-11T00:48:58.110Z,100.00
2023-02-11T00:51:28.618Z,100.00
2023-02-11T00:53:59.071Z,100.00
2023-02-11T00:56:28.006Z,100.00
2023-02-11T00:58:57.079Z,100.00
2023-02-11T01:01:25.298Z,100.00
2023-02-11T01:03:53.064Z,100.00
2023-02-11T01:06:23.349Z,100.00
2023-02-11T01:08:50.953Z,100.00
2023-02-11T01:11:21.583Z,100.00
2023-02-11T01:13:50.360Z,100.00
2023-02-11T01:16:20.173Z,100.00
2023-02-11T01:18:48.058Z,100.00
2023-02-11T01:21:19.156Z,100.00
2023-02-11T01:23:46.885Z,100.00
2023-02-11T01:26:14.403Z,100.00
2023-02-11T01:28:44.509Z,100.00
2023-02-11T01:31:12.136Z,100.00
2023-02-11T01:33:40.275Z,100.00
2023-02-11T01:36:12.745Z,100.00
2023-02-11T01:38:40.989Z,100.00
2023-02-11T01:41:13.349Z,100.00
2023-02-11T01:43:49.735Z,100.00
2023-02-11T01:46:38.646Z,100.00
2023-02-11T01:49:12.610Z,100.00
2023-02-11T01:51:46.875Z,100.00
2023-02-11T01:54:43.810Z,100.00
2023-02-11T01:57:27.361Z,100.00
2023-02-11T02:00:01.982Z,100.00
2023-02-11T02:03:00.463Z,100.00
2023-02-11T02:05:53.083Z,100.00
2023-02-11T02:08:51.064Z,100.00
2023-02-11T02:11:18.681Z,100.00
2023-02-11T02:13:46.435Z,100.00
2023-02-11T02:16:19.688Z,100.00
2023-02-11T02:19:19.637Z,100.00
2023-02-11T02:22:10.489Z,100.00
2023-02-11T02:25:15.066Z,100.00
2023-02-11T02:28:13.344Z,100.00
2023-02-11T02:31:17.844Z,100.00
2023-02-11T02:34:09.569Z,100.00
2023-02-11T02:37:15.135Z,100.00
2023-02-11T02:39:48.501Z,100.00
2023-02-11T02:42:18.652Z,100.00
2023-02-11T02:44:55.817Z,100.00
2023-02-11T02:47:23.407Z,100.00
2023-02-11T02:49:52.202Z,100.00
2023-02-11T02:52:53.838Z,100.00
2023-02-11T02:55:51.654Z,100.00
2023-02-11T02:58:34.955Z,100.00
2023-02-11T03:01:57.766Z,100.00
2023-02-11T03:05:02.828Z,100.00
2023-02-11T03:07:56.986Z,100.00
2023-02-11T03:10:33.063Z,100.00
2023-02-11T03:13:03.741Z,100.00
2023-02-11T03:15:40.663Z,100.00
2023-02-11T03:18:13.616Z,100.00
2023-02-11T03:20:45.625Z,100.00
2023-02-11T03:23:29.008Z,100.00
2023-02-11T03:26:05.594Z,100.00
2023-02-11T03:29:05.006Z,100.00
2023-02-11T03:32:17.654Z,100.00
2023-02-11T03:35:01.437Z,100.00
2023-02-11T03:37:50.722Z,100.00
2023-02-11T03:40:27.411Z,100.00
2023-02-11T03:43:01.112Z,100.00
2023-02-11T03:45:30.484Z,100.00
2023-02-11T03:48:06.171Z,100.00
2023-02-11T03:50:36.968Z,100.00
2023-02-11T03:53:06.349Z,100.00
2023-02-11T03:55:39.888Z,100.00
2023-02-11T03:58:09.095Z,100.00
2023-02-11T04:00:41.141Z,100.00
2023-02-11T04:03:10.993Z,100.00
2023-02-11T04:05:38.978Z,100.00
2023-02-11T04:08:07.058Z,100.00
2023-02-11T04:10:34.926Z,100.00
2023-02-11T04:13:02.415Z,100.00
2023-02-11T04:15:30.220Z,100.00
2023-02-11T04:17:57.917Z,100.00
2023-02-11T04:20:25.482Z,100.00
2023-02-11T04:22:53.220Z,100.00
2023-02-11T04:25:21.212Z,100.00
2023-02-11T04:27:48.697Z,100.00
2023-02-11T04:30:16.441Z,100.00
2023-02-11T04:32:43.980Z,100.00
2023-02-11T04:35:11.616Z,100.00
2023-02-11T04:37:39.465Z,100.00
2023-02-11T04:40:07.791Z,100.00
2023-02-11T04:42:35.321Z,100.00
2023-02-11T04:45:03.491Z,100.00
2023-02-11T04:47:31.044Z,100.00
2023-02-11T04:49:58.603Z,100.00
2023-02-11T04:52:26.310Z,100.00
2023-02-11T04:54:53.818Z,100.00
2023-02-11T04:57:21.325Z,100.00
2023-02-11T04:59:49.080Z,100.00
2023-02-11T05:02:16.717Z,100.00
2023-02-11T05:04:44.209Z,100.00
2023-02-11T05:07:11.870Z,100.00
2023-02-11T05:09:39.346Z,100.00
2023-02-11T05:12:07.060Z,100.00
2023-02-11T05:14:34.772Z,100.00
2023-02-11T05:17:02.400Z,100.00
2023-02-11T05:19:31.983Z,100.00
2023-02-11T05:22:03.033Z,100.00
2023-02-11T05:24:34.982Z,100.00
2023-02-11T05:27:02.571Z,100.00
2023-02-11T05:29:30.133Z,100.00
2023-02-11T05:31:59.621Z,100.00
2023-02-11T05:34:27.309Z,100.00
2023-02-11T05:36:55.187Z,100.00
2023-02-11T05:39:22.727Z,100.00
2023-02-11T05:41:50.386Z,100.00
2023-02-11T05:44:18.107Z,100.00
2023-02-11T05:46:45.765Z,100.00
2023-02-11T05:49:13.281Z,100.00
2023-02-11T05:51:41.138Z,100.00
2023-02-11T05:54:08.700Z,100.00
2023-02-11T05:56:36.183Z,100.00
2023-02-11T05:59:04.089Z,100.00
2023-02-11T06:01:31.665Z,100.00
2023-02-11T06:03:59.347Z,100.00
2023-02-11T06:06:26.996Z,100.00
2023-02-11T06:08:54.639Z,100.00
2023-02-11T06:11:22.448Z,100.00
2023-02-11T06:13:50.071Z,100.00
2023-02-11T06:16:17.903Z,100.00
2023-02-11T06:18:45.430Z,100.00
2023-02-11T06:21:13.055Z,100.00
2023-02-11T06:23:40.579Z,100.00
2023-02-11T06:26:15.589Z,100.00
2023-02-11T06:28:44.314Z,100.00
2023-02-11T06:31:14.661Z,100.00
2023-02-11T06:33:42.375Z,100.00
2023-02-11T06:36:18.234Z,100.00
2023-02-11T06:38:46.695Z,100.00
2023-02-11T06:41:17.586Z,100.00
2023-02-11T06:43:45.138Z,100.00
2023-02-11T06:46:12.825Z,100.00
2023-02-11T06:48:43.066Z,100.00
2023-02-11T06:51:13.434Z,100.00
2023-02-11T06:53:45.067Z,100.00
2023-02-11T06:56:16.192Z,100.00
2023-02-11T06:58:43.872Z,100.00
2023-02-11T07:01:16.021Z,100.00
2023-02-11T07:03:46.690Z,100.00
2023-02-11T07:06:22.425Z,100.00
2023-02-11T07:08:50.579Z,100.00
2023-02-11T07:11:24.427Z,100.00
2023-02-11T07:13:55.320Z,100.00
2023-02-11T07:16:23.714Z,100.00
2023-02-11T07:18:51.851Z,100.00
2023-02-11T07:21:24.315Z,100.00
2023-02-11T07:23:52.697Z,100.00
2023-02-11T07:26:23.543Z,100.00
2023-02-11T07:28:53.100Z,100.00
2023-02-11T07:31:26.757Z,100.00
2023-02-11T07:33:59.170Z,100.00
2023-02-11T07:36:29.350Z,100.00
2023-02-11T07:38:57.387Z,100.00
2023-02-11T07:41:26.400Z,100.00
2023-02-11T07:43:54.980Z,100.00
2023-02-11T07:46:28.178Z,100.00
2023-02-11T07:48:56.341Z,100.00
2023-02-11T07:51:30.371Z,100.00
2023-02-11T07:54:00.562Z,100.00
2023-02-11T07:56:29.671Z,100.00
2023-02-11T07:59:02.446Z,100.00
2023-02-11T08:01:30.940Z,100.00
2023-02-11T08:04:01.487Z,100.00
2023-02-11T08:06:34.634Z,100.00
2023-02-11T08:09:08.908Z,100.00
2023-02-11T08:11:36.742Z,100.00
2023-02-11T08:14:04.521Z,100.00
2023-02-11T08:16:35.323Z,100.00
2023-02-11T08:19:07.746Z,100.00
2023-02-11T08:21:35.559Z,100.00
2023-02-11T08:24:03.900Z,100.00
2023-02-11T08:26:35.201Z,100.00
2023-02-11T08:29:10.420Z,100.00
2023-02-11T08:31:42.562Z,100.00
2023-02-11T08:34:11.984Z,100.00
2023-02-11T08:36:42.416Z,100.00
2023-02-11T08:39:20.232Z,100.00
2023-02-11T08:41:52.312Z,100.00
2023-02-11T08:44:21.161Z,100.00
2023-02-11T08:46:50.206Z,100.00
2023-02-11T08:49:17.960Z,100.00
2023-02-11T08:51:46.861Z,100.00
2023-02-11T08:54:15.783Z,100.00
2023-02-11T08:56:44.087Z,100.00
2023-02-11T08:59:15.422Z,100.00
2023-02-11T09:01:44.271Z,100.00
2023-02-11T09:04:11.995Z,100.00
2023-02-11T09:06:40.138Z,100.00
2023-02-11T09:09:13.650Z,100.00
2023-02-11T09:11:44.054Z,100.00
2023-02-11T09:14:21.738Z,100.00
2023-02-11T09:16:51.496Z,100.00
2023-02-11T09:19:19.933Z,100.00
2023-02-11T09:21:47.788Z,100.00
2023-02-11T09:24:15.775Z,100.00
2023-02-11T09:26:44.046Z,100.00
2023-02-11T09:29:12.901Z,100.00
2023-02-11T09:31:41.142Z,100.00
2023-02-11T09:34:08.884Z,100.00
2023-02-11T09:36:39.632Z,100.00
2023-02-11T09:39:17.126Z,100.00
2023-02-11T09:42:20.251Z,100.00
2023-02-11T09:44:47.932Z,100.00
2023-02-11T09:47:33.106Z,100.00
2023-02-11T09:50:07.296Z,100.00
2023-02-11T09:52:47.609Z,100.00
2023-02-11T09:55:47.521Z,100.00
2023-02-11T09:58:24.780Z,100.00
2023-02-11T10:01:41.506Z,100.00
2023-02-11T10:04:18.242Z,100.00
2023-02-11T10:06:53.000Z,100.00
2023-02-11T10:10:03.649Z,100.00
2023-02-11T10:13:10.595Z,100.00
2023-02-11T10:15:48.803Z,100.00
2023-02-11T10:18:29.386Z,100.00
2023-02-11T10:21:24.509Z,100.00
2023-02-11T10:23:57.351Z,100.00
2023-02-11T10:26:30.963Z,100.00
2023-02-11T10:29:14.050Z,100.00
2023-02-11T10:31:45.008Z,100.00
2023-02-11T10:34:14.924Z,100.00
2023-02-11T10:36:45.018Z,100.00
2023-02-11T10:39:20.726Z,100.00
2023-02-11T10:41:57.611Z,100.00
2023-02-11T10:45:17.785Z,100.00
2023-02-11T10:47:45.596Z,100.00
2023-02-11T10:50:35.251Z,100.00
2023-02-11T10:53:20.761Z,100.00
2023-02-11T10:55:53.938Z,100.00
2023-02-11T10:58:35.900Z,100.00
2023-02-11T11:01:08.022Z,100.00
2023-02-11T11:03:50.061Z,100.00
2023-02-11T11:06:32.454Z,100.00
2023-02-11T11:09:01.119Z,100.00
2023-02-11T11:11:28.812Z,100.00
2023-02-11T11:14:01.223Z,100.00
2023-02-11T11:16:36.094Z,100.00
2023-02-11T11:19:06.608Z,100.00
2023-02-11T11:21:55.849Z,100.00
2023-02-11T11:24:35.316Z,100.00
2023-02-11T11:27:05.371Z,100.00
2023-02-11T11:29:50.413Z,100.00
2023-02-11T11:32:28.336Z,100.00
2023-02-11T11:35:01.209Z,100.00
2023-02-11T11:37:33.161Z,100.00
2023-02-11T11:40:15.523Z,100.00
2023-02-11T11:42:43.798Z,100.00
2023-02-11T11:45:19.914Z,100.00
2023-02-11T11:48:09.673Z,100.00
2023-02-11T11:50:47.640Z,100.00
2023-02-11T11:53:23.608Z,100.00
2023-02-11T11:55:59.855Z,100.00
2023-02-11T11:58:30.159Z,100.00
2023-02-11T12:01:22.855Z,100.00
2023-02-11T12:05:01.429Z,100.00
2023-02-11T12:08:28.139Z,100.00
2023-02-11T12:11:10.674Z,100.00
2023-02-11T12:14:27.426Z,100.00
2023-02-11T12:17:50.959Z,100.00
2023-02-11T12:20:43.617Z,100.00
2023-02-11T12:23:38.710Z,100.00
2023-02-11T12:26:23.463Z,100.00
2023-02-11T12:29:57.851Z,100.00
2023-02-11T12:32:51.336Z,100.00
2023-02-11T12:36:14.121Z,100.00
2023-02-11T12:39:16.133Z,100.00
2023-02-11T12:42:29.534Z,100.00
2023-02-11T12:45:27.471Z,100.00
2023-02-11T12:48:10.567Z,100.00
2023-02-11T12:51:05.898Z,100.00
2023-02-11T12:54:08.104Z,100.00
2023-02-11T12:57:18.490Z,100.00
2023-02-11T13:00:00.701Z,100.00
2023-02-11T13:02:49.377Z,100.00
2023-02-11T13:05:58.787Z,100.00
2023-02-11T13:08:31.456Z,100.00
2023-02-11T13:11:29.750Z,100.00
2023-02-11T13:14:19.350Z,100.00
2023-02-11T13:16:50.778Z,100.00
2023-02-11T13:19:33.041Z,100.00
2023-02-11T13:22:43.610Z,99.83
2023-02-11T13:25:36.317Z,99.27
2023-02-11T13:28:47.786Z,98.79
2023-02-11T13:31:16.773Z,99.14
2023-02-11T13:33:45.790Z,98.30
2023-02-11T13:36:27.750Z,97.96
2023-02-11T13:39:21.424Z,97.92
2023-02-11T13:41:52.254Z,97.59
2023-02-11T13:44:26.587Z,97.42
2023-02-11T13:47:07.173Z,97.27
2023-02-11T13:49:52.221Z,97.28
2023-02-11T13:52:27.475Z,96.08
2023-02-11T13:55:12.198Z,96.38
2023-02-11T13:57:41.902Z,96.44
2023-02-11T14:00:34.680Z,96.30
2023-02-11T14:03:30.296Z,96.69
2023-02-11T14:06:30.611Z,96.73
2023-02-11T14:09:22.346Z,96.75
2023-02-11T14:11:55.339Z,97.22
2023-02-11T14:14:28.900Z,96.74
2023-02-11T14:16:59.796Z,96.95
2023-02-11T14:19:43.868Z,96.80
2023-02-11T14:22:25.976Z,97.09
2023-02-11T14:25:04.674Z,97.10
2023-02-11T14:27:51.484Z,97.07
2023-02-11T14:30:46.517Z,96.86
2023-02-11T14:34:06.924Z,96.83
2023-02-11T14:36:52.854Z,96.85
2023-02-11T14:39:23.148Z,96.78
2023-02-11T14:41:51.669Z,96.54
2023-02-11T14:44:27.439Z,96.71
2023-02-11T14:46:56.160Z,96.79
2023-02-11T14:49:31.195Z,97.05
2023-02-11T14:52:27.597Z,96.98
2023-02-11T14:55:09.085Z,97.27
2023-02-11T14:57:37.961Z,97.56
2023-02-11T15:00:19.130Z,97.67
2023-02-11T15:02:47.078Z,97.82
2023-02-11T15:05:19.369Z,97.66
2023-02-11T15:08:00.736Z,97.47
2023-02-11T15:10:43.938Z,97.37
2023-02-11T15:13:21.630Z,97.79
2023-02-11T15:15:55.900Z,97.60
2023-02-11T15:18:33.943Z,97.70
2023-02-11T15:21:01.978Z,97.43
2023-02-11T15:23:31.723Z,97.69
2023-02-11T15:26:04.631Z,98.07
2023-02-11T15:28:35.447Z,97.64
2023-02-11T15:31:17.838Z,97.77
2023-02-11T15:33:46.919Z,98.01
2023-02-11T15:36:17.669Z,97.75
2023-02-11T15:38:45.263Z,97.99
2023-02-11T15:41:38.431Z,97.54
2023-02-11T15:44:05.946Z,98.11
2023-02-11T15:46:39.797Z,97.75
2023-02-11T15:49:19.222Z,97.20
2023-02-11T15:51:47.602Z,97.56
2023-02-11T15:54:22.192Z,97.72
2023-02-11T15:56:55.456Z,97.43
2023-02-11T15:59:52.210Z,97.74
2023-02-11T16:02:25.650Z,97.78
2023-02-11T16:05:06.069Z,97.45
2023-02-11T16:07:49.812Z,97.42
2023-02-11T16:10:36.093Z,97.38
2023-02-11T16:13:06.442Z,97.82
2023-02-11T16:15:33.874Z,97.66
2023-02-11T16:18:12.683Z,97.93
2023-02-11T16:20:40.886Z,97.86
2023-02-11T16:23:08.583Z,97.76
2023-02-11T16:25:37.424Z,97.56
2023-02-11T16:28:05.457Z,98.08
2023-02-11T16:30:40.527Z,98.51
2023-02-11T16:33:11.298Z,98.42
2023-02-11T16:35:39.048Z,97.83
2023-02-11T16:38:06.525Z,98.01
2023-02-11T16:40:35.685Z,98.11
2023-02-11T16:43:03.152Z,97.94
2023-02-11T16:45:31.750Z,97.99
2023-02-11T16:48:00.130Z,98.22
2023-02-11T16:50:28.344Z,98.17
2023-02-11T16:52:55.883Z,98.49
2023-02-11T16:55:23.449Z,98.30
2023-02-11T16:57:51.149Z,99.19
2023-02-11T17:00:21.032Z,99.21
2023-02-11T17:02:48.840Z,98.61
2023-02-11T17:05:23.066Z,99.28
2023-02-11T17:07:51.916Z,98.65
2023-02-11T17:10:23.554Z,99.21
2023-02-11T17:12:52.558Z,99.58
2023-02-11T17:15:20.234Z,99.72
2023-02-11T17:17:48.169Z,99.20
2023-02-11T17:20:16.382Z,99.62
2023-02-11T17:22:43.886Z,99.36
2023-02-11T17:25:11.837Z,99.57
2023-02-11T17:27:39.550Z,99.64
2023-02-11T17:30:08.689Z,99.57
2023-02-11T17:32:37.425Z,100.00
2023-02-11T17:35:08.317Z,100.00
2023-02-11T17:37:35.841Z,100.00
2023-02-11T17:40:03.894Z,100.00
2023-02-11T17:42:31.413Z,100.00
2023-02-11T17:44:59.132Z,100.00
2023-02-11T17:47:26.703Z,100.00
2023-02-11T17:49:54.290Z,100.00
2023-02-11T17:52:21.861Z,100.00
2023-02-11T17:54:49.878Z,100.00
2023-02-11T17:57:17.631Z,100.00
2023-02-11T17:59:45.343Z,100.00
2023-02-11T18:02:13.134Z,100.00
2023-02-11T18:04:40.804Z,100.00
2023-02-11T18:07:08.390Z,100.00
2023-02-11T18:09:40.407Z,100.00
2023-02-11T18:12:08.903Z,100.00
2023-02-11T18:14:40.419Z,100.00
2023-02-11T18:17:08.173Z,100.00
2023-02-11T18:19:36.629Z,100.00
2023-02-11T18:22:04.460Z,100.00
2023-02-11T18:24:32.074Z,100.00
2023-02-11T18:26:59.699Z,100.00
2023-02-11T18:29:27.758Z,100.00
2023-02-11T18:31:57.627Z,100.00
2023-02-11T18:34:25.935Z,100.00
2023-02-11T18:36:54.218Z,100.00
2023-02-11T18:39:24.252Z,100.00
2023-02-11T18:41:56.776Z,100.00
2023-02-11T18:44:25.803Z,100.00
2023-02-11T18:46:54.196Z,100.00
2023-02-11T18:49:21.802Z,100.00
2023-02-11T18:51:49.537Z,100.00
2023-02-11T18:54:17.066Z,100.00
2023-02-11T18:56:44.986Z,100.00
2023-02-11T18:59:12.739Z,100.00
2023-02-11T19:01:43.262Z,100.00
2023-02-11T19:04:11.427Z,100.00
2023-02-11T19:06:39.339Z,100.00
2023-02-11T19:09:15.450Z,100.00
2023-02-11T19:11:53.872Z,100.00
2023-02-11T19:14:28.718Z,100.00
2023-02-11T19:17:00.486Z,100.00
2023-02-11T19:19:32.392Z,100.00
2023-02-11T19:22:02.438Z,100.00
2023-02-11T19:24:30.837Z,100.00
2023-02-11T19:27:03.214Z,100.00
2023-02-11T19:29:35.282Z,100.00
2023-02-11T19:32:08.501Z,100.00
2023-02-11T19:34:41.406Z,100.00
2023-02-11T19:37:12.693Z,100.00
2023-02-11T19:39:42.714Z,100.00
2023-02-11T19:42:10.728Z,100.00
2023-02-11T19:44:38.625Z,100.00
2023-02-11T19:47:06.910Z,100.00
2023-02-11T19:49:34.588Z,100.00
2023-02-11T19:52:02.294Z,100.00
2023-02-11T19:54:29.799Z,100.00
2023-02-11T19:56:58.046Z,100.00
2023-02-11T19:59:25.763Z,100.00
2023-02-11T20:01:53.905Z,100.00
2023-02-11T20:04:21.568Z,100.00
2023-02-11T20:06:49.525Z,100.00
2023-02-11T20:09:17.079Z,100.00
2023-02-11T20:11:45.001Z,100.00
2023-02-11T20:14:15.220Z,100.00
2023-02-11T20:16:49.253Z,100.00
2023-02-11T20:19:22.014Z,100.00
2023-02-11T20:21:53.332Z,100.00
2023-02-11T20:24:22.082Z,100.00
2023-02-11T20:26:51.636Z,100.00
2023-02-11T20:29:19.348Z,100.00
2023-02-11T20:31:48.962Z,100.00
2023-02-11T20:34:18.184Z,100.00
2023-02-11T20:36:51.793Z,100.00
2023-02-11T20:39:23.526Z,100.00
2023-02-11T20:41:53.674Z,100.00
2023-02-11T20:44:22.639Z,100.00
2023-02-11T20:46:54.143Z,100.00
2023-02-11T20:49:23.596Z,100.00
2023-02-11T20:51:53.585Z,100.00
2023-02-11T20:54:23.226Z,100.00
2023-02-11T20:56:53.623Z,100.00
2023-02-11T20:59:21.815Z,100.00
2023-02-11T21:01:54.100Z,100.00
2023-02-11T21:04:29.779Z,100.00
2023-02-11T21:07:01.394Z,100.00
2023-02-11T21:09:32.501Z,100.00
2023-02-11T21:12:00.824Z,100.00
2023-02-11T21:14:29.413Z,100.00
2023-02-11T21:16:57.619Z,100.00
2023-02-11T21:19:25.233Z,100.00
2023-02-11T21:21:54.782Z,100.00
2023-02-11T21:24:22.952Z,100.00
2023-02-11T21:26:50.478Z,100.00
2023-02-11T21:29:18.075Z,100.00
2023-02-11T21:31:46.241Z,100.00
2023-02-11T21:34:15.787Z,100.00
2023-02-11T21:36:45.317Z,100.00
2023-02-11T21:39:14.513Z,100.00
2023-02-11T21:41:41.953Z,100.00
2023-02-11T21:44:09.549Z,100.00
2023-02-11T21:46:37.350Z,100.00
2023-02-11T21:49:05.065Z,100.00
2023-02-11T21:51:32.539Z,100.00
2023-02-11T21:54:02.686Z,100.00
2023-02-11T21:56:33.884Z,100.00
2023-02-11T21:59:02.025Z,100.00
2023-02-11T22:01:35.305Z,100.00
2023-02-11T22:04:04.315Z,100.00
2023-02-11T22:06:34.601Z,100.00
2023-02-11T22:09:07.077Z,100.00
2023-02-11T22:11:35.394Z,100.00
2023-02-11T22:14:03.536Z,100.00
2023-02-11T22:16:31.680Z,100.00
2023-02-11T22:18:59.407Z,100.00
2023-02-11T22:21:27.056Z,100.00
2023-02-11T22:23:56.062Z,100.00
2023-02-11T22:26:27.125Z,100.00
2023-02-11T22:28:55.967Z,100.00
2023-02-11T22:31:30.519Z,100.00
2023-02-11T22:34:00.237Z,100.00
2023-02-11T22:36:35.650Z,100.00
2023-02-11T22:39:08.297Z,100.00
2023-02-11T22:41:38.162Z,100.00
2023-02-11T22:44:05.739Z,100.00
2023-02-11T22:46:33.449Z,100.00
2023-02-11T22:49:00.983Z,100.00
2023-02-11T22:51:30.448Z,100.00
2023-02-11T22:54:05.985Z,100.00
2023-02-11T22:56:35.033Z,100.00
2023-02-11T22:59:08.352Z,100.00
2023-02-11T23:01:35.971Z,100.00
2023-02-11T23:04:06.629Z,100.00
2023-02-11T23:06:35.134Z,100.00
2023-02-11T23:09:09.889Z,100.00
2023-02-11T23:11:38.016Z,100.00
2023-02-11T23:14:05.657Z,100.00
2023-02-11T23:16:34.787Z,100.00
2023-02-11T23:19:09.272Z,100.00
2023-02-11T23:21:39.316Z,100.00
2023-02-11T23:24:14.951Z,100.00
2023-02-11T23:26:44.167Z,100.00
2023-02-11T23:29:12.543Z,100.00
2023-02-11T23:31:45.227Z,100.00
2023-02-11T23:34:20.291Z,100.00
2023-02-11T23:36:48.033Z,100.00
2023-02-11T23:39:16.968Z,100.00
2023-02-11T23:41:45.728Z,100.00
2023-02-11T23:44:13.286Z,100.00
2023-02-11T23:46:40.856Z,100.00
2023-02-11T23:49:08.847Z,100.00
2023-02-11T23:51:36.480Z,100.00
2023-02-11T23:54:04.263Z,100.00
2023-02-11T23:56:32.291Z,100.00
2023-02-11T23:58:59.842Z,100.00
